createdAt,value
2022-12-29T00:00:56.020Z,2.40
2022-12-29T00:03:22.961Z,2.60
2022-12-29T00:05:56.348Z,2.00
2022-12-29T00:08:40.415Z,2.17
2022-12-29T00:11:13.932Z,2.10
2022-12-29T00:13:59.671Z,2.45
2022-12-29T00:16:27.412Z,2.10
2022-12-29T00:18:54.361Z,2.37
2022-12-29T00:21:41.366Z,2.50
2022-12-29T00:24:32.283Z,2.05
2022-12-29T00:27:27.249Z,2.70
2022-12-29T00:30:12.476Z,2.20
2022-12-29T00:32:57.925Z,2.43
2022-12-29T00:35:42.717Z,1.85
2022-12-29T00:38:30.458Z,2.05
2022-12-29T00:41:15.860Z,2.33
2022-12-29T00:44:01.323Z,2.35
2022-12-29T00:46:29.617Z,2.30
2022-12-29T00:49:15.150Z,2.30
2022-12-29T00:51:42.048Z,2.00
2022-12-29T00:54:09.267Z,1.85
2022-12-29T00:56:36.243Z,2.10
2022-12-29T00:59:05.482Z,2.00
2022-12-29T01:01:33.313Z,1.67
2022-12-29T01:04:04.108Z,2.03
2022-12-29T01:06:31.680Z,1.83
2022-12-29T01:09:17.043Z,1.70
2022-12-29T01:11:44.257Z,1.80
2022-12-29T01:14:11.049Z,1.90
2022-12-29T01:16:38.031Z,2.00
2022-12-29T01:19:05.268Z,1.95
2022-12-29T01:21:32.160Z,2.17
2022-12-29T01:23:59.008Z,2.07
2022-12-29T01:26:25.873Z,2.28
2022-12-29T01:28:52.879Z,2.30
2022-12-29T01:31:19.845Z,2.15
2022-12-29T01:33:46.814Z,2.00
2022-12-29T01:36:15.590Z,2.00
2022-12-29T01:38:43.217Z,2.08
2022-12-29T01:41:12.561Z,1.98
2022-12-29T01:43:43.286Z,2.35
2022-12-29T01:46:25.015Z,1.85
2022-12-29T01:48:56.305Z,2.40
2022-12-29T01:51:25.739Z,1.90
2022-12-29T01:53:55.400Z,2.30
2022-12-29T01:56:23.203Z,2.42
2022-12-29T01:58:55.709Z,2.20
2022-12-29T02:01:23.053Z,1.90
2022-12-29T02:03:51.136Z,2.00
2022-12-29T02:06:33.422Z,2.00
2022-12-29T02:09:00.781Z,1.90
2022-12-29T02:11:30.107Z,2.00
2022-12-29T02:13:59.321Z,1.73
2022-12-29T02:16:42.268Z,1.80
2022-12-29T02:19:21.234Z,1.80
2022-12-29T02:22:00.145Z,2.00
2022-12-29T02:25:02.974Z,1.67
2022-12-29T02:27:56.299Z,1.57
2022-12-29T02:30:46.902Z,1.48
2022-12-29T02:33:57.027Z,1.58
2022-12-29T02:36:38.772Z,1.40
2022-12-29T02:39:24.079Z,1.33
2022-12-29T02:42:29.062Z,1.27
2022-12-29T02:45:08.640Z,1.50
2022-12-29T02:48:09.442Z,1.40
2022-12-29T02:50:42.212Z,1.25
2022-12-29T02:53:18.531Z,1.20
2022-12-29T02:55:53.343Z,1.33
2022-12-29T02:58:23.710Z,1.23
2022-12-29T03:01:10.061Z,1.38
2022-12-29T03:03:54.854Z,1.30
2022-12-29T03:06:44.479Z,1.20
2022-12-29T03:09:18.760Z,1.30
2022-12-29T03:12:11.432Z,1.33
2022-12-29T03:15:08.553Z,1.27
2022-12-29T03:17:42.863Z,1.15
2022-12-29T03:20:15.519Z,1.30
2022-12-29T03:22:46.562Z,1.07
2022-12-29T03:25:25.376Z,1.30
2022-12-29T03:28:03.233Z,1.10
2022-12-29T03:30:35.541Z,1.30
2022-12-29T03:33:07.314Z,1.10
2022-12-29T03:35:38.116Z,1.20
2022-12-29T03:38:26.075Z,1.20
2022-12-29T03:40:59.632Z,1.20
2022-12-29T03:43:29.168Z,1.40
2022-12-29T03:45:56.442Z,1.40
2022-12-29T03:48:23.302Z,1.50
2022-12-29T03:50:51.857Z,1.60
2022-12-29T03:53:19.196Z,1.38
2022-12-29T03:55:46.396Z,1.75
2022-12-29T03:58:13.205Z,1.90
2022-12-29T04:01:00.310Z,1.90
2022-12-29T04:03:27.363Z,1.70
2022-12-29T04:05:54.406Z,1.80
2022-12-29T04:08:21.515Z,1.70
2022-12-29T04:10:50.640Z,1.83
2022-12-29T04:13:21.035Z,1.80
2022-12-29T04:15:48.231Z,1.77
2022-12-29T04:18:15.188Z,1.85
2022-12-29T04:21:00.693Z,1.50
2022-12-29T04:23:29.573Z,1.92
2022-12-29T04:25:56.778Z,1.50
2022-12-29T04:28:23.858Z,1.45
2022-12-29T04:31:04.936Z,1.75
2022-12-29T04:33:36.053Z,1.60
2022-12-29T04:36:03.834Z,1.50
2022-12-29T04:38:31.070Z,1.50
2022-12-29T04:41:01.396Z,1.23
2022-12-29T04:43:29.217Z,1.40
2022-12-29T04:46:29.041Z,1.40
2022-12-29T04:49:18.912Z,1.48
2022-12-29T04:51:54.205Z,1.40
2022-12-29T04:54:21.128Z,1.45
2022-12-29T04:56:55.549Z,1.38
2022-12-29T04:59:22.385Z,1.42
2022-12-29T05:01:51.420Z,1.73
2022-12-29T05:04:18.366Z,1.67
2022-12-29T05:06:45.310Z,1.88
2022-12-29T05:09:12.114Z,1.90
2022-12-29T05:11:39.425Z,1.30
2022-12-29T05:14:06.325Z,1.80
2022-12-29T05:16:33.881Z,1.60
2022-12-29T05:19:00.905Z,1.60
2022-12-29T05:21:27.779Z,2.35
2022-12-29T05:23:55.399Z,1.73
2022-12-29T05:26:22.996Z,1.50
2022-12-29T05:29:25.307Z,1.50
2022-12-29T05:31:53.216Z,1.40
2022-12-29T05:34:21.100Z,1.38
2022-12-29T05:36:48.039Z,1.70
2022-12-29T05:39:15.669Z,1.92
2022-12-29T05:41:44.482Z,1.60
2022-12-29T05:44:42.698Z,1.60
2022-12-29T05:47:15.641Z,1.70
2022-12-29T05:49:48.687Z,1.88
2022-12-29T05:52:33.411Z,1.80
2022-12-29T05:55:00.447Z,1.70
2022-12-29T05:57:28.987Z,1.80
2022-12-29T06:00:07.554Z,1.63
2022-12-29T06:02:41.917Z,1.50
2022-12-29T06:05:09.353Z,1.58
2022-12-29T06:07:37.765Z,1.50
2022-12-29T06:10:06.349Z,1.80
2022-12-29T06:12:41.245Z,1.73
2022-12-29T06:15:08.608Z,1.50
2022-12-29T06:17:35.683Z,2.08
2022-12-29T06:20:03.263Z,1.90
2022-12-29T06:22:30.195Z,1.73
2022-12-29T06:25:03.005Z,1.90
2022-12-29T06:27:33.292Z,1.50
2022-12-29T06:30:00.765Z,1.50
2022-12-29T06:32:28.348Z,1.63
2022-12-29T06:35:00.620Z,1.75
2022-12-29T06:37:27.520Z,1.60
2022-12-29T06:39:54.383Z,1.70
2022-12-29T06:42:21.756Z,1.67
2022-12-29T06:45:09.046Z,1.70
2022-12-29T06:47:36.344Z,1.23
2022-12-29T06:50:04.211Z,1.50
2022-12-29T06:52:31.041Z,1.60
2022-12-29T06:54:57.957Z,1.30
2022-12-29T06:57:24.749Z,2.00
2022-12-29T06:59:51.887Z,1.50
2022-12-29T07:02:21.848Z,1.70
2022-12-29T07:04:48.767Z,1.55
2022-12-29T07:07:15.647Z,1.63
2022-12-29T07:09:42.413Z,1.27
2022-12-29T07:12:09.201Z,1.75
2022-12-29T07:14:42.621Z,1.83
2022-12-29T07:17:10.488Z,1.60
2022-12-29T07:19:41.794Z,1.40
2022-12-29T07:22:12.556Z,1.67
2022-12-29T07:24:39.962Z,1.58
2022-12-29T07:27:06.914Z,2.10
2022-12-29T07:29:34.396Z,1.90
2022-12-29T07:32:01.288Z,1.90
2022-12-29T07:34:28.141Z,2.00
2022-12-29T07:36:54.999Z,1.90
2022-12-29T07:39:22.013Z,2.33
2022-12-29T07:41:48.973Z,1.85
2022-12-29T07:44:20.770Z,2.40
2022-12-29T07:46:57.827Z,2.03
2022-12-29T07:49:25.987Z,1.80
2022-12-29T07:51:54.018Z,1.90
2022-12-29T07:54:20.972Z,1.95
2022-12-29T07:56:47.953Z,1.92
2022-12-29T07:59:14.801Z,1.90
2022-12-29T08:01:41.809Z,2.20
2022-12-29T08:04:08.764Z,1.80
2022-12-29T08:06:35.673Z,1.85
2022-12-29T08:09:08.363Z,2.13
2022-12-29T08:11:39.587Z,2.20
2022-12-29T08:14:06.400Z,2.00
2022-12-29T08:16:33.595Z,1.83
2022-12-29T08:19:00.609Z,1.80
2022-12-29T08:21:28.885Z,2.05
2022-12-29T08:23:56.133Z,1.83
2022-12-29T08:26:24.637Z,2.10
2022-12-29T08:28:56.621Z,1.77
2022-12-29T08:31:24.274Z,2.15
2022-12-29T08:33:51.695Z,2.13
2022-12-29T08:36:18.485Z,2.57
2022-12-29T08:38:45.338Z,2.10
2022-12-29T08:41:12.068Z,1.75
2022-12-29T08:43:38.965Z,1.92
2022-12-29T08:46:05.906Z,1.80
2022-12-29T08:48:32.763Z,1.77
2022-12-29T08:50:59.563Z,1.90
2022-12-29T08:53:26.440Z,1.88
2022-12-29T08:56:04.188Z,1.63
2022-12-29T08:58:37.053Z,2.15
2022-12-29T09:01:05.263Z,1.83
2022-12-29T09:06:20.158Z,1.92
2022-12-29T09:08:47.174Z,1.67
2022-12-29T09:11:22.930Z,1.98
2022-12-29T09:13:50.315Z,1.77
2022-12-29T09:16:18.691Z,1.90
2022-12-29T09:18:46.275Z,2.15
2022-12-29T09:21:13.839Z,2.08
2022-12-29T09:23:41.460Z,2.33
2022-12-29T09:26:08.862Z,1.77
2022-12-29T09:28:36.266Z,1.88
2022-12-29T09:31:03.466Z,1.80
2022-12-29T09:33:30.464Z,1.92
2022-12-29T09:35:59.402Z,2.00
2022-12-29T09:38:27.937Z,1.70
2022-12-29T09:41:08.107Z,1.40
2022-12-29T09:43:34.941Z,1.92
2022-12-29T09:46:04.689Z,1.85
2022-12-29T09:48:38.130Z,1.80
2022-12-29T09:51:12.383Z,1.90
2022-12-29T09:53:56.785Z,1.80
2022-12-29T09:56:25.852Z,1.75
2022-12-29T09:59:02.053Z,1.60
2022-12-29T10:01:31.508Z,1.65
2022-12-29T10:04:00.687Z,1.40
2022-12-29T10:06:32.955Z,1.55
2022-12-29T10:09:04.777Z,1.95
2022-12-29T10:11:58.792Z,1.20
2022-12-29T10:15:07.709Z,1.50
2022-12-29T10:17:58.253Z,1.43
2022-12-29T10:20:43.012Z,1.50
2022-12-29T10:23:23.536Z,1.80
2022-12-29T10:25:54.809Z,1.77
2022-12-29T10:28:24.775Z,2.08
2022-12-29T10:30:53.881Z,2.30
2022-12-29T10:33:24.968Z,1.88
2022-12-29T10:35:52.190Z,2.22
2022-12-29T10:38:36.641Z,2.13
2022-12-29T10:41:17.695Z,2.53
2022-12-29T10:43:50.824Z,2.40
2022-12-29T10:46:22.122Z,2.55
2022-12-29T10:48:49.020Z,2.45
2022-12-29T10:51:34.993Z,2.47
2022-12-29T10:54:18.478Z,2.92
2022-12-29T10:56:53.212Z,2.77
2022-12-29T10:59:25.485Z,2.47
2022-12-29T11:02:24.917Z,2.25
2022-12-29T11:05:34.136Z,2.50
2022-12-29T11:08:05.231Z,2.38
2022-12-29T11:10:35.062Z,2.60
2022-12-29T11:13:03.371Z,2.30
2022-12-29T11:15:47.469Z,2.65
2022-12-29T11:18:25.437Z,2.50
2022-12-29T11:20:55.957Z,2.83
2022-12-29T11:23:36.793Z,2.13
2022-12-29T11:26:24.553Z,2.67
2022-12-29T11:29:17.216Z,2.22
2022-12-29T11:31:46.534Z,2.47
2022-12-29T11:34:20.824Z,3.00
2022-12-29T11:36:49.749Z,3.03
2022-12-29T11:39:45.642Z,2.63
2022-12-29T11:42:18.702Z,2.20
2022-12-29T11:44:48.125Z,2.92
2022-12-29T11:47:26.140Z,3.10
2022-12-29T11:49:57.182Z,2.87
2022-12-29T11:52:26.736Z,3.22
2022-12-29T11:54:55.328Z,2.65
2022-12-29T11:57:23.372Z,2.97
2022-12-29T11:59:58.646Z,2.70
2022-12-29T12:02:50.220Z,2.70
2022-12-29T12:05:44.528Z,2.85
2022-12-29T12:08:23.638Z,2.58
2022-12-29T12:11:00.034Z,2.25
2022-12-29T12:13:38.221Z,2.60
2022-12-29T12:16:18.087Z,3.23
2022-12-29T12:18:55.388Z,2.30
2022-12-29T12:21:45.813Z,2.28
2022-12-29T12:24:19.216Z,2.15
2022-12-29T12:27:03.675Z,3.00
2022-12-29T12:29:39.354Z,2.23
2022-12-29T12:32:24.809Z,3.58
2022-12-29T12:34:52.029Z,2.20
2022-12-29T12:37:56.866Z,2.85
2022-12-29T12:40:32.987Z,2.60
2022-12-29T12:43:43.079Z,3.07
2022-12-29T12:46:25.441Z,2.35
2022-12-29T12:49:16.795Z,2.58
2022-12-29T12:52:05.120Z,2.35
2022-12-29T12:54:47.483Z,2.97
2022-12-29T12:57:32.098Z,2.77
2022-12-29T13:00:19.080Z,2.45
2022-12-29T13:03:01.259Z,2.38
2022-12-29T13:05:59.031Z,3.05
2022-12-29T13:08:48.162Z,3.30
2022-12-29T13:11:41.009Z,2.77
2022-12-29T13:14:45.224Z,3.10
2022-12-29T13:17:40.913Z,2.70
2022-12-29T13:20:25.658Z,2.78
2022-12-29T13:23:19.149Z,2.78
2022-12-29T13:25:52.214Z,3.00
2022-12-29T13:28:21.872Z,2.45
2022-12-29T13:31:03.845Z,2.70
2022-12-29T13:33:49.732Z,2.90
2022-12-29T13:36:38.330Z,3.33
2022-12-29T13:39:17.518Z,3.17
2022-12-29T13:41:58.726Z,2.80
2022-12-29T13:44:46.449Z,2.30
2022-12-29T13:47:18.879Z,2.30
2022-12-29T13:49:46.438Z,2.00
2022-12-29T13:52:39.505Z,1.80
2022-12-29T13:55:34.803Z,1.67
2022-12-29T13:58:20.512Z,1.60
2022-12-29T14:01:19.435Z,1.95
2022-12-29T14:03:54.068Z,1.90
2022-12-29T14:06:26.638Z,1.63
2022-12-29T14:08:57.473Z,1.63
2022-12-29T14:11:32.086Z,1.45
2022-12-29T14:14:00.403Z,1.60
2022-12-29T14:16:33.622Z,1.70
2022-12-29T14:19:31.517Z,1.20
2022-12-29T14:22:06.254Z,1.20
2022-12-29T14:24:36.441Z,1.70
2022-12-29T14:27:12.061Z,1.58
2022-12-29T14:29:42.085Z,1.75
2022-12-29T14:32:26.943Z,1.50
2022-12-29T14:34:55.787Z,1.80
2022-12-29T14:37:36.440Z,2.25
2022-12-29T14:40:18.947Z,2.03
2022-12-29T14:42:49.681Z,1.80
2022-12-29T14:45:18.845Z,2.33
2022-12-29T14:47:49.991Z,2.08
2022-12-29T14:50:20.177Z,3.47
2022-12-29T14:53:03.624Z,1.95
2022-12-29T14:55:47.376Z,1.85
2022-12-29T14:58:31.121Z,2.00
2022-12-29T15:00:59.050Z,1.63
2022-12-29T15:03:45.489Z,2.05
2022-12-29T15:06:17.978Z,2.80
2022-12-29T15:09:26.054Z,1.98
2022-12-29T15:11:57.323Z,1.60
2022-12-29T15:14:33.829Z,1.90
2022-12-29T15:17:02.411Z,1.60
2022-12-29T15:19:29.837Z,2.60
2022-12-29T15:21:57.859Z,2.08
2022-12-29T15:24:25.182Z,2.07
2022-12-29T15:26:54.333Z,1.70
2022-12-29T15:29:43.132Z,2.30
2022-12-29T15:32:25.614Z,2.30
2022-12-29T15:34:55.960Z,2.30
2022-12-29T15:37:34.617Z,2.10
2022-12-29T15:40:01.933Z,1.70
2022-12-29T15:42:53.737Z,2.00
2022-12-29T15:45:21.136Z,2.00
2022-12-29T15:47:50.715Z,1.95
2022-12-29T15:50:30.140Z,2.20
2022-12-29T15:52:58.550Z,2.40
2022-12-29T15:55:35.893Z,2.20
2022-12-29T15:58:05.630Z,2.45
2022-12-29T16:00:35.421Z,2.20
2022-12-29T16:03:04.235Z,1.90
2022-12-29T16:05:36.415Z,2.33
2022-12-29T16:08:03.965Z,2.17
2022-12-29T16:10:58.469Z,2.60
2022-12-29T16:13:41.210Z,2.60
2022-12-29T16:16:18.882Z,2.10
2022-12-29T16:18:50.486Z,2.15
2022-12-29T16:21:34.991Z,2.10
2022-12-29T16:24:06.011Z,3.10
2022-12-29T16:26:32.924Z,2.30
2022-12-29T16:29:02.445Z,3.30
2022-12-29T16:31:36.752Z,2.20
2022-12-29T16:34:24.886Z,2.95
2022-12-29T16:37:31.717Z,2.50
2022-12-29T16:40:18.394Z,2.80
2022-12-29T16:42:51.731Z,1.70
2022-12-29T16:45:24.806Z,1.67
2022-12-29T16:48:14.419Z,2.05
2022-12-29T16:50:43.817Z,2.10
2022-12-29T16:53:25.582Z,2.10
2022-12-29T16:55:54.241Z,1.87
2022-12-29T16:58:24.970Z,2.00
2022-12-29T17:00:58.251Z,2.30
2022-12-29T17:03:33.723Z,2.00
2022-12-29T17:06:00.660Z,2.40
2022-12-29T17:08:27.720Z,1.90
2022-12-29T17:11:15.727Z,1.75
2022-12-29T17:13:42.830Z,2.00
2022-12-29T17:16:12.464Z,1.75
2022-12-29T17:18:39.638Z,2.15
2022-12-29T17:21:06.549Z,2.30
2022-12-29T17:23:34.990Z,3.00
2022-12-29T17:26:02.703Z,2.40
2022-12-29T17:28:32.322Z,2.05
2022-12-29T17:31:06.774Z,2.63
2022-12-29T17:33:40.019Z,2.00
2022-12-29T17:36:07.073Z,2.20
2022-12-29T17:38:37.397Z,2.20
2022-12-29T17:41:04.758Z,1.90
2022-12-29T17:43:36.820Z,1.95
2022-12-29T17:46:07.033Z,1.70
2022-12-29T17:48:33.932Z,2.00
2022-12-29T17:51:00.873Z,2.90
2022-12-29T17:53:30.451Z,1.85
2022-12-29T17:55:57.533Z,2.60
2022-12-29T17:58:26.695Z,1.80
2022-12-29T18:00:56.159Z,2.40
2022-12-29T18:03:39.390Z,2.20
2022-12-29T18:06:08.353Z,2.20
2022-12-29T18:08:36.255Z,1.88
2022-12-29T18:11:04.127Z,2.40
2022-12-29T18:13:45.491Z,2.75
2022-12-29T18:16:14.026Z,2.80
2022-12-29T18:18:41.199Z,2.70
2022-12-29T18:21:16.717Z,2.40
2022-12-29T18:23:44.076Z,2.70
2022-12-29T18:26:28.481Z,3.40
2022-12-29T18:28:56.799Z,2.78
2022-12-29T18:31:34.046Z,2.35
2022-12-29T18:34:03.294Z,2.40
2022-12-29T18:36:30.153Z,2.10
2022-12-29T18:38:56.998Z,2.95
2022-12-29T18:41:24.921Z,2.00
2022-12-29T18:43:52.219Z,2.38
2022-12-29T18:46:23.160Z,2.45
2022-12-29T18:48:51.203Z,2.00
2022-12-29T18:51:20.184Z,2.63
2022-12-29T18:53:47.377Z,2.70
2022-12-29T18:56:14.403Z,2.40
2022-12-29T18:58:41.572Z,2.72
2022-12-29T19:01:20.360Z,2.33
2022-12-29T19:03:48.006Z,2.42
2022-12-29T19:06:14.984Z,2.10
2022-12-29T19:08:41.907Z,2.50
2022-12-29T19:11:08.917Z,2.75
2022-12-29T19:13:35.756Z,2.40
2022-12-29T19:16:02.660Z,3.05
2022-12-29T19:18:50.922Z,3.67
2022-12-29T19:21:16.462Z,5.30
2022-12-29T19:23:43.325Z,3.30
2022-12-29T19:26:34.278Z,3.77
2022-12-29T19:29:01.019Z,2.75
2022-12-29T19:31:28.516Z,3.42
2022-12-29T19:33:55.544Z,2.83
2022-12-29T19:36:22.862Z,2.72
2022-12-29T19:38:50.089Z,3.17
2022-12-29T19:41:17.011Z,3.15
2022-12-29T19:43:43.982Z,2.60
2022-12-29T19:46:16.619Z,3.30
2022-12-29T19:48:43.743Z,2.70
2022-12-29T19:51:13.474Z,3.00
2022-12-29T19:53:40.529Z,3.33
2022-12-29T19:56:11.300Z,3.28
2022-12-29T19:58:43.849Z,2.97
2022-12-29T20:01:16.102Z,3.05
2022-12-29T20:03:43.435Z,3.13
2022-12-29T20:06:11.696Z,3.35
2022-12-29T20:08:39.362Z,2.65
2022-12-29T20:11:13.045Z,3.13
2022-12-29T20:13:40.687Z,3.50
2022-12-29T20:16:11.900Z,3.23
2022-12-29T20:18:39.213Z,3.28
2022-12-29T20:21:18.895Z,2.78
2022-12-29T20:23:47.099Z,3.15
2022-12-29T20:26:22.398Z,2.85
2022-12-29T20:28:49.852Z,3.03
2022-12-29T20:31:29.757Z,3.20
2022-12-29T20:33:56.897Z,3.00
2022-12-29T20:36:30.163Z,3.20
2022-12-29T20:38:58.508Z,3.70
2022-12-29T20:41:25.815Z,4.27
2022-12-29T20:43:53.446Z,3.40
2022-12-29T20:46:21.763Z,3.05
2022-12-29T20:48:49.812Z,2.72
2022-12-29T20:51:16.920Z,2.80
2022-12-29T20:53:43.658Z,3.47
2022-12-29T20:56:14.898Z,5.45
2022-12-29T20:59:17.125Z,5.18
2022-12-29T21:01:29.333Z,3.92
2022-12-29T21:03:56.343Z,3.80
2022-12-29T21:06:23.248Z,3.23
2022-12-29T21:08:50.895Z,3.13
2022-12-29T21:11:18.735Z,2.60
2022-12-29T21:13:45.649Z,4.18
2022-12-29T21:16:14.350Z,3.10
2022-12-29T21:18:41.703Z,3.20
2022-12-29T21:21:17.238Z,2.63
2022-12-29T21:23:44.235Z,2.95
2022-12-29T21:26:14.031Z,3.25
2022-12-29T21:28:41.586Z,2.80
2022-12-29T21:31:17.379Z,3.30
2022-12-29T21:33:44.357Z,2.67
2022-12-29T21:36:11.154Z,2.70
2022-12-29T21:38:38.107Z,3.30
2022-12-29T21:41:07.569Z,2.72
2022-12-29T21:43:34.520Z,2.60
2022-12-29T21:46:01.661Z,2.95
2022-12-29T21:48:30.244Z,2.35
2022-12-29T21:51:30.170Z,2.90
2022-12-29T21:54:18.995Z,2.50
2022-12-29T21:56:49.083Z,2.40
2022-12-29T21:59:35.147Z,2.40
2022-12-29T22:02:22.969Z,2.72
2022-12-29T22:05:08.541Z,2.60
2022-12-29T22:07:54.889Z,2.85
2022-12-29T22:10:40.500Z,3.00
2022-12-29T22:13:07.338Z,2.88
2022-12-29T22:15:37.165Z,2.33
2022-12-29T22:18:05.312Z,2.70
2022-12-29T22:20:35.295Z,2.28
2022-12-29T22:23:02.653Z,2.33
2022-12-29T22:25:29.507Z,2.08
2022-12-29T22:27:59.428Z,2.30
2022-12-29T22:30:27.905Z,2.05
2022-12-29T22:32:54.768Z,2.38
2022-12-29T22:35:21.579Z,2.20
2022-12-29T22:37:48.375Z,2.40
2022-12-29T22:40:15.234Z,2.20
2022-12-29T22:42:42.025Z,2.05
2022-12-29T22:45:09.268Z,1.88
2022-12-29T22:47:36.306Z,2.20
2022-12-29T22:50:04.191Z,2.08
2022-12-29T22:52:31.554Z,2.47
2022-12-29T22:55:04.570Z,2.30
2022-12-29T22:57:33.395Z,2.30
2022-12-29T23:00:00.130Z,2.00
2022-12-29T23:02:27.679Z,2.45
2022-12-29T23:05:04.010Z,2.28
2022-12-29T23:07:32.964Z,2.13
2022-12-29T23:09:59.860Z,2.45
2022-12-29T23:12:29.630Z,2.40
2022-12-29T23:14:56.482Z,2.17
2022-12-29T23:17:25.077Z,2.05
2022-12-29T23:19:51.950Z,2.63
2022-12-29T23:22:18.824Z,2.50
2022-12-29T23:24:45.623Z,2.30
2022-12-29T23:27:12.374Z,2.55
2022-12-29T23:29:39.149Z,2.33
2022-12-29T23:32:05.922Z,2.78
2022-12-29T23:34:32.737Z,2.20
2022-12-29T23:36:59.612Z,2.17
2022-12-29T23:39:26.616Z,2.30
2022-12-29T23:41:53.379Z,2.70
2022-12-29T23:44:20.504Z,2.42
2022-12-29T23:46:47.430Z,2.25
2022-12-29T23:49:14.478Z,2.17
2022-12-29T23:51:41.745Z,2.15
2022-12-29T23:54:08.488Z,2.03
2022-12-29T23:56:35.499Z,2.00
2022-12-29T23:59:06.090Z,2.50
